Time;durP1;ratioP1;P1;durP2;ratioP2;P2;SDS_P1;SDS_P2;PMS_P1;PMS_P2;Temp;Humidity;BMP_temperature;BMP_pressure;BME280_temperature;BME280_humidity;BME280_pressure;Samples;Min_cycle;Max_cycle;Signal;HPM_P1;HPM_P2
2022/05/08 00:01:24;;;;;;;;;;;;;;;13.61;45.47;99965.38;1625617;86;20155;-67
2022/05/08 00:03:51;;;;;;;;;;;;;;;13.56;45.58;99960.03;1631681;85;20282;-68
2022/05/08 00:06:17;;;;;;;;;;;;;;;13.53;45.69;99963.44;1634449;86;20151;-67
2022/05/08 00:08:50;;;;;;;;;;;;;;;13.50;45.80;99962.71;1637709;86;20488;-67
2022/05/08 00:11:21;;;;;;;;;;;;;;;13.47;45.80;99956.47;1633144;86;20469;-67
2022/05/08 00:13:50;;;;;;;;;;;;;;;13.42;46.07;99959.39;1634488;86;22136;-67
2022/05/08 00:16:22;;;;;;;;;;;;;;;13.38;46.06;99957.84;1634761;86;20581;-67
2022/05/08 00:18:53;;;;;;;;;;;;;;;13.35;46.17;99955.73;1612700;87;20176;-67
2022/05/08 00:21:21;;;;;;;;;;;;;;;13.30;46.50;99959.22;1633245;86;20949;-67
2022/05/08 00:23:53;;;;;;;;;;;;;;;13.22;46.39;99955.35;1635842;86;20201;-68
2022/05/08 00:26:19;;;;;;;;;;;;;;;13.18;46.75;99958.51;1638164;85;21335;-68
2022/05/08 00:28:55;;;;;;;;;;;;;;;13.11;47.03;99963.66;1656666;85;20088;-68
2022/05/08 00:31:21;;;;;;;;;;;;;;;13.03;47.08;99955.62;1612571;86;20160;-68
2022/05/08 00:33:53;;;;;;;;;;;;;;;12.97;47.14;99955.52;1648127;85;20925;-68
2022/05/08 00:36:18;;;;;;;;;;;;;;;12.92;47.38;99956.24;1635231;86;20094;-68
2022/05/08 00:38:50;;;;;;;;;;;;;;;12.86;47.41;99958.34;1633120;86;21101;-68
2022/05/08 00:41:25;;;;;;;;;;;;;;;12.80;47.72;99948.03;1634896;86;20154;-67
2022/05/08 00:43:57;;;;;;;;;;;;;;;12.76;47.79;99950.37;1629111;86;20114;-68
2022/05/08 00:46:24;;;;;;;;;;;;;;;12.71;47.95;99954.68;1631195;85;20185;-67
2022/05/08 00:48:55;;;;;;;;;;;;;;;12.66;48.12;99945.19;1636900;86;20150;-67
2022/05/08 00:51:24;;;;;;;;;;;;;;;12.59;48.23;99940.70;1643911;86;21176;-67
2022/05/08 00:53:51;;;;;;;;;;;;;;;12.53;48.51;99942.80;1633912;86;20146;-67
2022/05/08 00:56:24;;;;;;;;;;;;;;;12.45;48.63;99944.38;1635747;86;20256;-67
2022/05/08 00:58:54;;;;;;;;;;;;;;;12.42;48.89;99943.64;1637266;86;20090;-67
2022/05/08 01:01:28;;;;;;;;;;;;;;;12.38;48.85;99937.72;1635533;86;20429;-67
2022/05/08 01:03:59;;;;;;;;;;;;;;;12.32;49.21;99943.11;1647643;84;21285;-67
2022/05/08 01:06:23;;;;;;;;;;;;;;;12.25;49.42;99940.81;1642668;85;20124;-67
2022/05/08 01:08:53;;;;;;;;;;;;;;;12.19;49.60;99939.33;1665416;85;20246;-66
2022/05/08 01:11:21;;;;;;;;;;;;;;;12.14;49.77;99943.03;1665497;85;20179;-66
2022/05/08 01:13:53;;;;;;;;;;;;;;;12.07;49.97;99937.20;1668928;85;20107;-66
2022/05/08 01:16:21;;;;;;;;;;;;;;;12.02;50.21;99933.77;1644623;85;20709;-66
2022/05/08 01:18:52;;;;;;;;;;;;;;;11.97;50.24;99940.22;1665805;85;20144;-66
2022/05/08 01:21:41;;;;;;;;;;;;;;;11.92;50.39;99932.66;1640867;86;20124;-66
2022/05/08 01:24:10;;;;;;;;;;;;;;;11.85;50.74;99935.86;1666877;85;20124;-66
2022/05/08 01:26:39;;;;;;;;;;;;;;;11.78;50.83;99933.55;1667732;85;20111;-66
2022/05/08 01:29:10;;;;;;;;;;;;;;;11.72;51.25;99936.15;1668252;85;21365;-66
2022/05/08 01:31:39;;;;;;;;;;;;;;;11.66;51.39;99937.41;1670085;85;20088;-66
2022/05/08 01:34:11;;;;;;;;;;;;;;;11.62;51.55;99930.91;1648166;85;20219;-66
2022/05/08 01:36:35;;;;;;;;;;;;;;;11.57;51.88;99933.78;1663707;85;20648;-66
2022/05/08 01:39:04;;;;;;;;;;;;;;;11.51;51.92;99930.93;1668816;86;20125;-66
2022/05/08 01:41:35;;;;;;;;;;;;;;;11.46;52.13;99925.55;1666651;85;21259;-66
2022/05/08 01:44:10;;;;;;;;;;;;;;;11.42;52.42;99920.44;1667186;85;37569;-66
2022/05/08 01:46:38;;;;;;;;;;;;;;;11.37;52.70;99927.42;1649297;85;20146;-66
2022/05/08 01:49:06;;;;;;;;;;;;;;;11.35;52.78;99920.05;1650463;85;20183;-66
2022/05/08 01:51:36;;;;;;;;;;;;;;;11.31;52.95;99925.36;1615156;87;20493;-66
2022/05/08 01:54:05;;;;;;;;;;;;;;;11.27;53.04;99928.48;1617807;86;21253;-66
2022/05/08 01:56:41;;;;;;;;;;;;;;;11.21;53.40;99928.34;1618887;87;20116;-66
2022/05/08 02:01:39;;;;;;;;;;;;;;;11.07;53.91;99932.51;1598902;88;20481;-67
2022/05/08 02:04:05;;;;;;;;;;;;;;;11.05;54.04;99929.81;1622370;87;20173;-67
2022/05/08 02:06:36;;;;;;;;;;;;;;;11.02;54.34;99936.73;1638483;85;21152;-67
2022/05/08 02:09:06;;;;;;;;;;;;;;;11.00;54.42;99936.23;1642637;86;20130;-67
2022/05/08 02:11:33;;;;;;;;;;;;;;;10.97;54.86;99932.77;1655371;86;20094;-67
2022/05/08 02:14:06;;;;;;;;;;;;;;;10.93;54.86;99940.00;1653061;86;20168;-67
2022/05/08 02:16:43;;;;;;;;;;;;;;;10.90;54.95;99936.49;1637282;84;20102;-67
2022/05/08 02:19:08;;;;;;;;;;;;;;;10.88;55.28;99935.98;1611784;87;20132;-67
2022/05/08 02:21:37;;;;;;;;;;;;;;;10.87;55.40;99939.30;1644499;86;20389;-67
2022/05/08 02:24:08;;;;;;;;;;;;;;;10.84;55.54;99939.91;1626279;86;20090;-67
2022/05/08 02:26:37;;;;;;;;;;;;;;;10.84;55.59;99939.09;1646045;86;20102;-67
2022/05/08 02:29:04;;;;;;;;;;;;;;;10.83;55.91;99939.66;1641208;86;20106;-67
2022/05/08 02:31:39;;;;;;;;;;;;;;;10.83;56.03;99945.71;1603911;87;21374;-67
2022/05/08 02:34:05;;;;;;;;;;;;;;;10.84;56.01;99941.84;1627856;86;20086;-67
2022/05/08 02:36:38;;;;;;;;;;;;;;;10.86;56.23;99951.96;1626857;87;20102;-67
2022/05/08 02:39:08;;;;;;;;;;;;;;;10.91;58.36;99945.80;1622202;85;20545;-67
2022/05/08 02:41:36;;;;;;;;;;;;;;;10.97;56.76;99945.13;1632636;87;20183;-67
2022/05/08 02:44:05;;;;;;;;;;;;;;;10.99;56.93;99945.60;1647609;86;21128;-67
2022/05/08 02:46:33;;;;;;;;;;;;;;;10.99;56.65;99944.78;1645905;85;20189;-67
2022/05/08 02:49:02;;;;;;;;;;;;;;;11.00;56.62;99943.67;1656678;85;20162;-66
2022/05/08 02:51:32;;;;;;;;;;;;;;;11.01;56.78;99943.36;1659022;86;20915;-67
2022/05/08 02:54:02;;;;;;;;;;;;;;;11.02;56.90;99940.05;1645252;86;20092;-66
2022/05/08 02:59:17;;;;;;;;;;;;;;;11.05;56.94;99945.73;1644986;85;20194;-67
2022/05/08 03:01:44;;;;;;;;;;;;;;;11.07;57.04;99947.62;1663724;86;20092;-67
2022/05/08 03:04:17;;;;;;;;;;;;;;;11.09;57.16;99942.63;1638981;86;20094;-67
2022/05/08 03:06:47;;;;;;;;;;;;;;;11.11;57.13;99950.56;1634006;86;20454;-67
2022/05/08 03:09:11;;;;;;;;;;;;;;;11.13;57.20;99953.81;1703494;84;21131;-67
2022/05/08 03:11:46;;;;;;;;;;;;;;;11.14;57.47;99954.87;1697346;84;20112;-67
2022/05/08 03:14:15;;;;;;;;;;;;;;;11.14;57.43;99957.63;1696609;82;20113;-67
2022/05/08 03:16:42;;;;;;;;;;;;;;;11.16;57.57;99950.45;1698459;83;20456;-67
2022/05/08 03:19:08;;;;;;;;;;;;;;;11.17;57.82;99952.88;1696663;84;20435;-67
2022/05/08 03:21:41;;;;;;;;;;;;;;;11.18;57.86;99961.38;1680512;84;21948;-67
2022/05/08 03:24:08;;;;;;;;;;;;;;;11.21;57.92;99966.26;1632914;86;20079;-68
2022/05/08 03:26:37;;;;;;;;;;;;;;;11.25;58.18;99964.52;1630959;87;20114;-68
2022/05/08 03:29:03;;;;;;;;;;;;;;;11.32;58.13;99966.02;1631792;87;20159;-67
2022/05/08 03:31:39;;;;;;;;;;;;;;;11.39;58.20;99970.53;1601203;88;20442;-67
2022/05/08 03:34:07;;;;;;;;;;;;;;;11.46;57.93;99971.73;1626811;86;21135;-67
2022/05/08 03:36:36;;;;;;;;;;;;;;;11.57;58.00;99977.20;1604880;87;20153;-67
2022/05/08 03:39:03;;;;;;;;;;;;;;;11.67;57.54;99972.59;1636462;87;20145;-67
2022/05/08 03:41:29;;;;;;;;;;;;;;;11.75;57.60;99982.28;1622879;87;20090;-67
2022/05/08 03:43:58;;;;;;;;;;;;;;;11.81;57.62;99981.06;1625084;88;20097;-67
2022/05/08 03:46:34;;;;;;;;;;;;;;;11.88;57.44;99982.80;1595493;89;20134;-67
2022/05/08 03:48:59;;;;;;;;;;;;;;;11.93;57.45;99985.99;1606139;88;20093;-67
2022/05/08 03:51:28;;;;;;;;;;;;;;;11.99;57.16;99982.55;1630528;87;20091;-67
2022/05/08 03:53:59;;;;;;;;;;;;;;;12.04;57.12;99990.11;1622355;86;20132;-67
2022/05/08 03:56:32;;;;;;;;;;;;;;;12.10;56.65;99989.42;1607204;88;20467;-67
2022/05/08 03:58:55;;;;;;;;;;;;;;;12.14;56.89;99983.50;1619335;88;21110;-68
2022/05/08 04:01:27;;;;;;;;;;;;;;;12.17;56.40;99988.38;1620269;87;20189;-67
2022/05/08 04:03:53;;;;;;;;;;;;;;;12.21;56.30;99992.13;1661391;85;20155;-67
2022/05/08 04:06:22;;;;;;;;;;;;;;;12.23;56.43;99987.92;1653405;86;20144;-67
2022/05/08 04:08:53;;;;;;;;;;;;;;;12.26;56.25;99994.74;1626088;87;20139;-67
2022/05/08 04:11:20;;;;;;;;;;;;;;;12.29;56.51;99998.23;1658163;84;21207;-67
2022/05/08 04:13:48;;;;;;;;;;;;;;;12.30;56.47;99990.80;1663850;84;20122;-68
2022/05/08 04:16:21;;;;;;;;;;;;;;;12.32;56.55;99992.10;1658027;85;20127;-68
2022/05/08 04:18:50;;;;;;;;;;;;;;;12.33;56.63;99997.86;1672424;84;20177;-68
2022/05/08 04:21:24;;;;;;;;;;;;;;;12.36;56.60;100002.73;1656940;84;20076;-68
2022/05/08 04:26:35;;;;;;;;;;;;;;;12.43;56.67;100000.34;1686304;84;20123;-68
2022/05/08 04:29:02;;;;;;;;;;;;;;;12.49;56.70;99996.88;1674388;83;20124;-68
2022/05/08 04:31:32;;;;;;;;;;;;;;;12.58;56.71;100009.31;1602590;88;20144;-69
2022/05/08 04:34:02;;;;;;;;;;;;;;;12.65;56.16;100004.16;1634063;85;20124;-68
2022/05/08 04:36:41;;;;;;;;;;;;;;;12.72;56.31;100001.72;1663419;85;21185;-68
2022/05/08 04:39:05;;;;;;;;;;;;;;;12.80;56.27;100002.32;1664885;86;20093;-69
2022/05/08 04:41:33;;;;;;;;;;;;;;;12.91;56.20;100005.03;1645451;85;20208;-69
2022/05/08 04:44:00;;;;;;;;;;;;;;;13.01;55.98;100006.11;1649075;86;20150;-70
2022/05/08 04:46:35;;;;;;;;;;;;;;;13.10;55.84;100006.95;1622481;86;20185;-69
2022/05/08 04:49:03;;;;;;;;;;;;;;;13.21;55.40;100008.30;1646141;86;22117;-69
2022/05/08 04:51:30;;;;;;;;;;;;;;;13.31;55.70;100006.33;1632699;88;20165;-68
2022/05/08 04:53:58;;;;;;;;;;;;;;;13.42;55.36;100006.27;1609391;88;20108;-69
2022/05/08 04:56:27;;;;;;;;;;;;;;;13.50;54.94;100003.52;1632901;88;20112;-71
2022/05/08 04:58:55;;;;;;;;;;;;;;;13.61;54.56;99999.05;1633596;88;20125;-74
2022/05/08 05:01:23;;;;;;;;;;;;;;;13.68;54.35;100000.76;1627209;88;21133;-70
2022/05/08 05:03:55;;;;;;;;;;;;;;;13.74;54.23;99998.89;1633210;88;20111;-72
2022/05/08 05:06:23;;;;;;;;;;;;;;;13.84;54.34;100004.65;1631031;88;20196;-73
2022/05/08 05:08:47;;;;;;;;;;;;;;;13.92;54.14;100006.55;1632342;88;20162;-72
2022/05/08 05:11:16;;;;;;;;;;;;;;;13.99;53.53;100001.35;1633714;88;20080;-74
2022/05/08 05:13:42;;;;;;;;;;;;;;;14.07;53.19;100006.62;1633812;88;21183;-79
2022/05/08 05:16:13;;;;;;;;;;;;;;;14.13;52.80;99999.78;1633606;88;20080;-77
2022/05/08 05:18:44;;;;;;;;;;;;;;;14.18;52.46;100008.70;1610041;87;20187;-83
2022/05/08 05:21:13;;;;;;;;;;;;;;;14.25;51.92;100006.83;1633510;88;20092;-79
2022/05/08 05:23:44;;;;;;;;;;;;;;;14.30;51.74;100005.84;1629374;86;20116;-79
2022/05/08 06:49:15;;;;;;;;;;;;;;;19.01;40.55;99996.44;1664107;85;20152;-72
2022/05/08 06:51:46;;;;;;;;;;;;;;;18.98;40.54;99991.59;1678531;84;20121;-72
2022/05/08 06:54:16;;;;;;;;;;;;;;;18.85;40.67;99993.45;1655744;85;20104;-75
2022/05/08 06:56:45;;;;;;;;;;;;;;;18.68;40.96;99996.81;1684197;85;20450;-73
2022/05/08 07:02:00;;;;;;;;;;;;;;;18.41;41.44;100008.23;1671792;84;20100;-76
2022/05/08 07:04:33;;;;;;;;;;;;;;;18.23;42.12;100013.08;1680127;83;20443;-72
2022/05/08 07:06:58;;;;;;;;;;;;;;;18.11;42.57;100011.17;1671526;83;20199;-75
2022/05/08 07:12:30;;;;;;;;;;;;;;;18.03;42.69;100006.00;1684081;85;21216;-76
2022/05/08 07:15:01;;;;;;;;;;;;;;;17.98;42.65;100010.42;1708251;83;20120;-81
2022/05/08 07:17:31;;;;;;;;;;;;;;;18.02;44.08;100014.11;1701742;82;20162;-77
2022/05/08 07:19:59;;;;;;;;;;;;;;;18.10;43.68;100005.39;1668704;84;20694;-71
2022/05/08 07:22:34;;;;;;;;;;;;;;;18.20;43.61;100015.98;1641475;84;20103;-74
2022/05/08 07:25:03;;;;;;;;;;;;;;;18.29;43.18;100007.49;1625014;87;21172;-80
2022/05/08 07:27:36;;;;;;;;;;;;;;;18.41;43.16;100013.79;1649898;84;20131;-80
2022/05/08 07:30:04;;;;;;;;;;;;;;;18.57;42.73;100012.97;1683876;85;20510;-81
2022/05/08 07:32:34;;;;;;;;;;;;;;;18.65;43.15;100010.63;1698589;81;20708;-83
2022/05/08 07:37:51;;;;;;;;;;;;;;;18.88;43.40;100008.03;1663606;83;21164;-83
2022/05/08 07:40:26;;;;;;;;;;;;;;;19.04;43.06;100015.19;1657761;83;20506;-87
2022/05/08 07:42:52;;;;;;;;;;;;;;;19.18;42.37;100016.09;1667652;85;20115;-86
2022/05/08 07:45:20;;;;;;;;;;;;;;;19.35;41.42;100012.91;1657856;84;20229;-82
2022/05/08 07:47:55;;;;;;;;;;;;;;;19.52;41.95;100013.70;1692974;82;20095;-74
2022/05/08 07:50:21;;;;;;;;;;;;;;;19.63;40.88;100009.98;1664462;84;20546;-75
2022/05/08 07:52:47;;;;;;;;;;;;;;;19.72;40.33;100017.50;1675075;84;20091;-75
2022/05/08 07:55:17;;;;;;;;;;;;;;;19.85;39.72;100023.75;1664627;84;20443;-75
2022/05/08 07:57:46;;;;;;;;;;;;;;;19.97;39.38;100018.61;1668889;83;20396;-71
2022/05/08 08:00:17;;;;;;;;;;;;;;;20.07;38.98;100018.02;1678620;83;20088;-84
2022/05/08 08:02:47;;;;;;;;;;;;;;;20.23;40.41;100016.51;1667168;83;21895;-87
2022/05/08 08:05:15;;;;;;;;;;;;;;;20.62;38.27;100011.69;1660588;84;20124;-71
2022/05/08 08:07:46;;;;;;;;;;;;;;;20.97;36.88;100007.27;1647200;85;20165;-72
2022/05/08 08:10:12;;;;;;;;;;;;;;;21.28;36.73;100006.19;1623091;86;20575;-72
2022/05/08 08:12:39;;;;;;;;;;;;;;;21.60;36.16;100003.23;1626762;85;20154;-76
2022/05/08 08:15:10;;;;;;;;;;;;;;;21.82;34.76;100006.30;1661179;85;21100;-73
2022/05/08 08:17:39;;;;;;;;;;;;;;;21.77;33.82;100001.05;1661038;84;20100;-77
2022/05/08 08:20:15;;;;;;;;;;;;;;;21.51;33.83;100006.89;1629103;85;20118;-73
2022/05/08 08:22:42;;;;;;;;;;;;;;;21.51;34.17;100002.70;1655337;85;20075;-78
2022/05/08 08:25:09;;;;;;;;;;;;;;;21.86;33.73;100008.55;1676158;85;20104;-77
2022/05/08 08:27:44;;;;;;;;;;;;;;;22.20;32.96;99992.58;1652010;85;21876;-73
2022/05/08 08:30:09;;;;;;;;;;;;;;;22.46;32.83;99988.25;1654768;85;20124;-73
2022/05/08 08:32:37;;;;;;;;;;;;;;;22.59;32.96;100000.74;1658738;85;20127;-72
2022/05/08 08:35:08;;;;;;;;;;;;;;;22.56;32.98;99993.12;1655494;85;20180;-72
2022/05/08 08:37:41;;;;;;;;;;;;;;;22.40;33.58;99992.00;1654673;85;20104;-74
2022/05/08 08:40:08;;;;;;;;;;;;;;;22.31;33.24;99998.50;1654183;85;21243;-75
2022/05/08 08:42:39;;;;;;;;;;;;;;;22.24;33.31;99999.81;1633888;85;20078;-76
2022/05/08 08:47:56;;;;;;;;;;;;;;;21.91;33.34;99994.23;1664215;85;20565;-76
2022/05/08 08:50:26;;;;;;;;;;;;;;;21.85;34.22;99995.77;1666664;84;20403;-72
2022/05/08 08:53:03;;;;;;;;;;;;;;;21.88;35.04;99991.61;1661368;83;20653;-73
2022/05/08 08:55:28;;;;;;;;;;;;;;;22.01;33.93;99998.56;1663992;84;20533;-81
2022/05/08 08:57:56;;;;;;;;;;;;;;;22.15;33.46;99992.92;1679823;83;20104;-74
2022/05/08 09:00:24;;;;;;;;;;;;;;;22.25;32.56;99995.83;1661380;83;20924;-72
2022/05/08 09:02:55;;;;;;;;;;;;;;;22.32;32.01;99992.31;1666733;83;20455;-73
2022/05/08 09:05:24;;;;;;;;;;;;;;;22.38;33.21;99990.18;1687989;84;21157;-72
2022/05/08 09:07:56;;;;;;;;;;;;;;;22.61;32.76;99986.36;1660784;84;20180;-68
2022/05/08 09:10:24;;;;;;;;;;;;;;;22.79;33.09;99983.16;1666898;84;20124;-75
2022/05/08 09:16:58;;;;;;;;;;;;;;;23.15;32.29;99969.40;1676266;83;20127;-68
2022/05/08 09:19:38;;;;;;;;;;;;;;;23.41;31.38;99973.36;1659003;85;21187;-68
2022/05/08 09:22:11;;;;;;;;;;;;;;;23.35;31.62;99976.33;1675920;84;20088;-67
2022/05/08 09:24:53;;;;;;;;;;;;;;;23.32;30.87;99979.91;1663975;85;20153;-68
2022/05/08 09:27:24;;;;;;;;;;;;;;;23.41;31.00;99969.16;1667763;83;20092;-75
2022/05/08 09:29:53;;;;;;;;;;;;;;;23.80;30.43;99969.95;1666844;83;20137;-70
2022/05/08 09:32:42;;;;;;;;;;;;;;;24.22;30.12;99967.27;1710589;82;21132;-73
2022/05/08 09:35:10;;;;;;;;;;;;;;;24.68;30.05;99965.94;1702391;83;20457;-72
2022/05/08 09:37:52;;;;;;;;;;;;;;;24.72;28.88;99959.52;1681352;84;20467;-75
2022/05/08 09:40:27;;;;;;;;;;;;;;;24.47;29.29;99965.11;1687182;83;20159;-78
2022/05/08 09:42:54;;;;;;;;;;;;;;;24.16;29.14;99956.25;1673005;83;20152;-73
2022/05/08 09:45:25;;;;;;;;;;;;;;;23.80;28.59;99964.34;1645753;85;20119;-74
2022/05/08 09:47:54;;;;;;;;;;;;;;;23.36;29.53;99962.53;1626474;86;20457;-76
2022/05/08 09:50:20;;;;;;;;;;;;;;;23.27;30.03;99953.67;1655353;86;20450;-72
2022/05/08 09:52:48;;;;;;;;;;;;;;;23.41;30.93;99959.95;1674237;84;20156;-80
2022/05/08 09:55:21;;;;;;;;;;;;;;;23.84;30.91;99952.55;1648698;85;20103;-75
2022/05/08 09:57:49;;;;;;;;;;;;;;;24.34;27.79;99961.29;1662503;85;21129;-75
2022/05/08 10:00:16;;;;;;;;;;;;;;;24.55;26.59;99960.52;1653941;85;20128;-74
2022/05/08 10:02:53;;;;;;;;;;;;;;;24.55;27.25;99959.11;1627715;87;20095;-76
2022/05/08 10:05:19;;;;;;;;;;;;;;;24.62;26.56;99954.91;1660266;85;20148;-71
2022/05/08 10:07:49;;;;;;;;;;;;;;;24.46;26.12;99948.08;1655572;85;20168;-72
2022/05/08 10:15:50;;;;;;;;;;;;;;;23.46;27.86;99953.38;1666930;84;20140;-76
2022/05/08 10:18:33;;;;;;;;;;;;;;;23.48;28.49;99952.98;1668224;84;20163;-89
2022/05/08 10:21:08;;;;;;;;;;;;;;;23.78;29.52;99949.32;1695588;84;20150;-75
2022/05/08 10:23:42;;;;;;;;;;;;;;;24.18;29.75;99944.62;1671618;84;21163;-72
2022/05/08 10:26:23;;;;;;;;;;;;;;;24.49;28.66;99947.28;1691639;84;20160;-75
2022/05/08 10:29:09;;;;;;;;;;;;;;;24.60;28.61;99946.69;1669356;84;20100;-74
2022/05/08 10:31:48;;;;;;;;;;;;;;;24.80;27.17;99933.84;1663089;84;20135;-75
2022/05/08 10:34:31;;;;;;;;;;;;;;;24.99;26.84;99933.42;1653796;85;20556;-72
2022/05/08 10:37:17;;;;;;;;;;;;;;;25.17;27.45;99928.38;1640637;85;20088;-71
2022/05/08 10:39:51;;;;;;;;;;;;;;;25.24;25.79;99919.33;1653390;85;20116;-79
2022/05/08 10:42:39;;;;;;;;;;;;;;;25.06;26.47;99926.99;1627731;86;20141;-76
2022/05/08 10:45:08;;;;;;;;;;;;;;;24.99;26.98;99919.38;1654260;85;20654;-81
2022/05/08 10:47:44;;;;;;;;;;;;;;;24.88;26.94;99915.75;1604451;87;20188;-81
2022/05/08 10:50:13;;;;;;;;;;;;;;;25.05;27.29;99913.35;1624749;86;21770;-83
2022/05/08 10:52:46;;;;;;;;;;;;;;;25.17;25.94;99912.92;1656994;85;20281;-90
2022/05/08 10:55:15;;;;;;;;;;;;;;;24.94;26.22;99914.14;1652830;84;20154;-79
2022/05/08 10:57:47;;;;;;;;;;;;;;;24.81;26.03;99912.98;1627639;85;20129;-70
2022/05/08 11:00:18;;;;;;;;;;;;;;;24.85;26.15;99901.72;1654441;85;20438;-69
2022/05/08 11:02:47;;;;;;;;;;;;;;;24.81;26.45;99900.36;1657575;85;21279;-71
2022/05/08 11:05:19;;;;;;;;;;;;;;;24.64;26.41;99901.97;1656921;85;20284;-72
2022/05/08 11:07:59;;;;;;;;;;;;;;;24.43;26.32;99899.77;1656011;84;20446;-71
2022/05/08 11:10:43;;;;;;;;;;;;;;;24.47;26.45;99896.36;1682341;83;20946;-71
2022/05/08 11:13:21;;;;;;;;;;;;;;;24.63;26.32;99886.34;1676091;83;20451;-72
2022/05/08 11:15:47;;;;;;;;;;;;;;;24.90;25.70;99888.08;1669626;83;21285;-74
2022/05/08 11:18:17;;;;;;;;;;;;;;;24.92;25.33;99876.44;1684121;83;20114;-72
2022/05/08 11:20:53;;;;;;;;;;;;;;;24.93;25.85;99876.03;1679515;83;20120;-75
2022/05/08 11:23:18;;;;;;;;;;;;;;;25.08;25.65;99873.22;1690202;83;20133;-73
2022/05/08 11:25:46;;;;;;;;;;;;;;;25.16;25.72;99880.42;1689813;83;20175;-75
2022/05/08 11:28:18;;;;;;;;;;;;;;;24.98;25.29;99870.04;1693099;83;21823;-81
2022/05/08 11:30:47;;;;;;;;;;;;;;;24.73;26.34;99870.69;1682388;83;20119;-75
2022/05/08 11:36:08;;;;;;;;;;;;;;;24.41;26.53;99872.71;1668728;86;20291;-72
2022/05/08 11:38:45;;;;;;;;;;;;;;;24.14;26.96;99872.30;1669301;84;20092;-77
2022/05/08 11:41:27;;;;;;;;;;;;;;;23.89;26.50;99872.26;1652264;84;20476;-75
2022/05/08 11:44:02;;;;;;;;;;;;;;;23.69;26.66;99874.01;1684718;84;20167;-75
2022/05/08 11:46:44;;;;;;;;;;;;;;;23.68;26.92;99865.40;1659781;84;20119;-81
2022/05/08 11:49:15;;;;;;;;;;;;;;;23.62;27.02;99860.01;1689610;83;20088;-83
2022/05/08 11:51:49;;;;;;;;;;;;;;;23.54;27.00;99854.18;1695175;83;20134;-77
2022/05/08 11:54:25;;;;;;;;;;;;;;;23.58;27.64;99854.19;1691068;83;20837;-74
2022/05/08 11:57:18;;;;;;;;;;;;;;;23.56;27.50;99848.18;1664449;85;20100;-77
2022/05/08 11:59:53;;;;;;;;;;;;;;;23.54;27.93;99851.97;1683705;82;20098;-79
2022/05/08 12:02:23;;;;;;;;;;;;;;;23.52;27.81;99846.73;1680149;83;20095;-76
2022/05/08 12:04:55;;;;;;;;;;;;;;;23.53;28.78;99846.97;1691776;82;20153;-78
2022/05/08 12:07:25;;;;;;;;;;;;;;;23.74;28.00;99841.19;1694843;83;21323;-80
2022/05/08 12:09:55;;;;;;;;;;;;;;;23.82;27.03;99845.02;1668939;83;20095;-75
2022/05/08 12:12:29;;;;;;;;;;;;;;;23.71;26.71;99837.98;1692403;83;20099;-74
2022/05/08 12:15:10;;;;;;;;;;;;;;;23.48;27.27;99835.31;1686722;84;20542;-74
2022/05/08 12:17:49;;;;;;;;;;;;;;;23.29;27.45;99830.84;1689608;82;20089;-73
2022/05/08 12:20:17;;;;;;;;;;;;;;;23.39;27.32;99821.67;1690949;83;21174;-81
2022/05/08 12:23:00;;;;;;;;;;;;;;;23.45;27.59;99819.30;1662339;84;20441;-75
2022/05/08 12:25:28;;;;;;;;;;;;;;;23.54;27.58;99816.35;1670785;83;20080;-75
2022/05/08 12:28:02;;;;;;;;;;;;;;;23.62;27.46;99809.56;1689917;84;20142;-74
2022/05/08 12:30:31;;;;;;;;;;;;;;;23.58;27.13;99808.75;1687060;83;20092;-75
2022/05/08 12:32:57;;;;;;;;;;;;;;;23.51;27.68;99813.51;1691619;83;21640;-81
2022/05/08 12:35:25;;;;;;;;;;;;;;;23.43;27.73;99813.28;1678071;84;20416;-78
2022/05/08 12:37:57;;;;;;;;;;;;;;;23.27;27.22;99809.42;1690986;83;20117;-76
2022/05/08 12:40:23;;;;;;;;;;;;;;;23.07;27.85;99811.78;1693193;83;20160;-75
2022/05/08 12:42:54;;;;;;;;;;;;;;;22.97;27.60;99806.94;1695071;82;20161;-71
2022/05/08 12:45:22;;;;;;;;;;;;;;;22.88;28.08;99801.69;1690862;83;21756;-73
2022/05/08 12:47:57;;;;;;;;;;;;;;;22.91;28.12;99800.10;1689489;83;20151;-75
2022/05/08 12:50:26;;;;;;;;;;;;;;;22.95;28.45;99800.33;1689411;83;20116;-72
2022/05/08 12:52:56;;;;;;;;;;;;;;;23.00;28.46;99797.75;1692441;84;20165;-71
2022/05/08 12:55:25;;;;;;;;;;;;;;;22.97;27.90;99796.53;1689175;83;20439;-72
2022/05/08 13:00:43;;;;;;;;;;;;;;;22.89;28.32;99797.70;1688855;84;20165;-80
2022/05/08 13:03:11;;;;;;;;;;;;;;;22.90;28.03;99790.91;1693575;83;20117;-79
2022/05/08 13:05:39;;;;;;;;;;;;;;;22.96;27.96;99799.12;1691231;83;20123;-89
2022/05/08 13:08:10;;;;;;;;;;;;;;;23.26;28.25;99788.22;1692841;83;20076;-79
2022/05/08 13:10:36;;;;;;;;;;;;;;;23.90;27.78;99779.34;1690386;83;21119;-72
2022/05/08 13:13:06;;;;;;;;;;;;;;;24.74;26.51;99776.05;1690283;83;20117;-75
2022/05/08 13:15:37;;;;;;;;;;;;;;;25.49;25.60;99778.69;1692283;83;20176;-71
2022/05/08 13:18:03;;;;;;;;;;;;;;;26.12;24.15;99768.18;1693825;83;20077;-75
2022/05/08 13:20:34;;;;;;;;;;;;;;;26.50;23.82;99765.44;1692072;84;20073;-73
2022/05/08 13:23:03;;;;;;;;;;;;;;;26.83;24.13;99770.27;1693835;83;21295;-77
2022/05/08 13:25:34;;;;;;;;;;;;;;;27.20;23.18;99766.59;1679999;84;20107;-80
2022/05/08 13:28:05;;;;;;;;;;;;;;;27.15;22.65;99767.06;1683965;83;20466;-75
2022/05/08 13:30:36;;;;;;;;;;;;;;;26.76;22.70;99761.91;1670766;84;20125;-79
2022/05/08 13:33:06;;;;;;;;;;;;;;;26.13;23.69;99759.94;1683624;85;20439;-69
2022/05/08 13:35:38;;;;;;;;;;;;;;;25.58;24.07;99763.58;1692454;83;21535;-69
2022/05/08 13:38:10;;;;;;;;;;;;;;;25.21;25.02;99758.60;1688716;83;20076;-69
2022/05/08 13:40:39;;;;;;;;;;;;;;;25.00;24.83;99745.45;1691253;84;20120;-73
2022/05/08 13:43:10;;;;;;;;;;;;;;;24.72;25.45;99747.58;1695109;83;20132;-85
2022/05/08 13:45:38;;;;;;;;;;;;;;;24.47;26.07;99751.85;1688994;84;20087;-75
2022/05/08 13:48:13;;;;;;;;;;;;;;;24.49;25.95;99751.65;1684371;83;21100;-72
2022/05/08 13:50:47;;;;;;;;;;;;;;;24.91;25.86;99748.48;1688412;83;20120;-70
2022/05/08 13:53:14;;;;;;;;;;;;;;;25.60;24.93;99740.67;1658465;85;20442;-70
2022/05/08 13:55:44;;;;;;;;;;;;;;;26.06;24.16;99745.93;1687907;85;20099;-73
2022/05/08 13:58:17;;;;;;;;;;;;;;;25.97;23.68;99739.41;1670879;83;20267;-70
2022/05/08 14:00:57;;;;;;;;;;;;;;;25.55;24.05;99736.28;1678189;84;20520;-71
2022/05/08 14:03:20;;;;;;;;;;;;;;;24.99;23.91;99724.20;1690371;84;20078;-71
2022/05/08 14:05:51;;;;;;;;;;;;;;;24.46;25.16;99730.00;1688265;83;20129;-69
2022/05/08 14:08:20;;;;;;;;;;;;;;;24.17;25.36;99726.45;1691341;83;20129;-78
2022/05/08 14:10:47;;;;;;;;;;;;;;;24.22;25.56;99732.26;1697286;83;20423;-71
2022/05/08 14:13:18;;;;;;;;;;;;;;;24.34;26.10;99726.23;1687665;83;21166;-72
2022/05/08 14:15:45;;;;;;;;;;;;;;;24.26;26.02;99728.88;1691403;84;20148;-68
2022/05/08 14:18:14;;;;;;;;;;;;;;;24.04;26.35;99735.88;1696150;83;20441;-66
2022/05/08 14:20:46;;;;;;;;;;;;;;;23.90;26.57;99728.08;1690047;83;20166;-71
2022/05/08 14:23:14;;;;;;;;;;;;;;;23.78;27.14;99736.28;1665663;83;20430;-72
2022/05/08 14:25:44;;;;;;;;;;;;;;;23.61;27.01;99748.31;1628942;87;21749;-70
2022/05/08 14:28:10;;;;;;;;;;;;;;;23.42;29.09;99752.25;1640213;86;20111;-70
2022/05/08 14:36:01;;;;;;;;;;;;;;;23.11;32.22;99775.39;1642606;86;20433;-70
2022/05/08 14:36:02;;;;;;;;;;;;;;;22.48;33.58;99774.67;1665624;86;20095;-74
2022/05/08 14:38:31;;;;;;;;;;;;;;;22.26;34.25;99786.31;1668232;85;21179;-75
2022/05/08 14:40:59;;;;;;;;;;;;;;;22.15;34.58;99784.62;1669789;85;20100;-70
2022/05/08 14:43:29;;;;;;;;;;;;;;;22.05;35.65;99779.16;1665155;85;20153;-71
2022/05/08 14:46:05;;;;;;;;;;;;;;;21.86;35.78;99783.58;1665881;85;20230;-69
2022/05/08 14:48:31;;;;;;;;;;;;;;;21.51;36.53;99783.45;1667777;85;20108;-69
2022/05/08 14:51:02;;;;;;;;;;;;;;;21.18;37.39;99777.30;1636788;86;20512;-71
2022/05/08 14:53:34;;;;;;;;;;;;;;;20.98;38.03;99790.61;1647493;86;20246;-73
2022/05/08 14:55:58;;;;;;;;;;;;;;;20.81;38.16;99782.00;1636304;87;20137;-72
2022/05/08 14:58:24;;;;;;;;;;;;;;;20.70;38.91;99779.10;1628612;86;20213;-78
2022/05/08 15:00:56;;;;;;;;;;;;;;;20.63;38.84;99779.81;1639112;86;20178;-73
2022/05/08 15:03:30;;;;;;;;;;;;;;;20.58;39.62;99775.95;1603755;88;20609;-74